New Munster, Wisconsin
Current Conditions -  °F | °C
As of 5:55 PM on Monday 20 Oct 2014 (Local Time) from KBUU Reporting Station
Overcast Overcast  
Wind Chill: 52°   Ceiling: 5000
Heat Index: 52°   Visibility: 10mi
Dew Point: 41°   Wind: 7mph
Humidity: 68%   Direction: 330°NNW
Pressure: 29.95"   Gusts: NA
Location:  42.58°N, 88.23°W
Report Text: KBUU 202255Z AUTO 33006KT 10SM OVC050 11/05 A2995 RMK AO2 T01100052
Loading
Personal Weather Stations






























Interactive Weather Map
Tropical Storm Tracking
New forecast layout! Learn more

10-Day Weather Forecast

Advertisements
Track Severe Weather on mobile